Debrecen, Magyarország

2014 December 23 02:30 AM (CET időzóna) (GMT +0100)
Debrecen | Change Station
CLOSE
Current Station
Personal Weather Stations
Location: Debrecen, HAJDU-BIHAR MEGYE
Elevation: 410 ft
Közeli meteorológiai állomások

Elev 410 ft 47.54 °N, 21.63 °E | Updated 26 seconds ago

Partly Cloudy
Helyenként felhős
39.9 °F
Hőérzet 40 °F
N
0.0
Szél: változó Szél: from dél-délnyugati
Gusts 0.0 mph

Ma
High -- | Low -- °F
--% Csapadék valószínű
Tegnapi
High -- | Low -- °F
Precip. -- hvlyk.
7:19 AM 3:45 PM
Újhold, 1% visible
Légnyomás 30.06 hvlyk.
Látótávolság 6.2 mérföld
Felhők Kevés 15000 ft
Hőérzet 40 °F
Harmatpont 34 °F
Páratartalom 78%
Rainfall 0.00 hvlyk.
Hóréteg vastagsága Not available.
UV 0 out of 12
Pollen Not available.
A levegő minősége Not available.
Flu Activity Not available.
METAR LROD 230100Z AUTO 19014KT 9999 FEW150 06/02 Q1018

More Conditions Fewer Conditions

Légnyomás 30.06 hvlyk.
Látótávolság 6.2 mérföld
Felhők Kevés 15000 ft
Hőérzet 40 °F
Harmatpont 34 °F
Páratartalom 78%
Rainfall 0.00 hvlyk.
Hóréteg vastagsága Not available.
UV 0 out of 12
Pollen Not available.
A levegő minősége Not available.
Flu Activity Not available.
METAR LROD 230100Z AUTO 19014KT 9999 FEW150 06/02 Q1018

More Conditions Fewer Conditions

10-Day Weather Forecast

Almanac

Csillagászat

Dec. 23, 2014 Kel Nyugszik
Tényleges idő
Civil alkony
Tengerészeti alkony
Csillagászati alkony
Hold
Látható fény időtartama
A nap hossza
Tomorrow will be .
, % of the Moon is Illuminated

Today's Extremes

Country Highs Country Lows

Community

WunderPhotos

Upload Photos

1,779,753 Fotók feltöltve.

WunderBlogs® & News

Nearby

A levegő minősége

  A levegő minősége AQ Index Szennyezőanyag
Not available.

Hóréteg vastagsága

Station Depth Elevation

Earthquake Activity

város Distance Mag. Time & Date
Minimum magnitude displayed is 2.5.

Coastal Water Temperatures

Hely Hőmérséklet

Közeli meteorológiai állomások